63C weather

Adams County Legion Field
Friendship (Adams), Wisconsin, United States

Public forecast

Using degrees Fahrenheit for public forecast. Weather courtesy of forecast.io.

Closest aviation weather report (METAR) to Adams County Legion Field

Closest report is Mauston New Lisbon Union Airport, 16.8 nm (31.2 km) WSW. Retrieved 2019/10/18 15:35 UTC (0 seconds ago):

K82C 181535Z AUTO 14009KT 7SM CLR 10/05 A2995 RMK AO2 T00970048

Closest aviation forecast (TAF) to Adams County Legion Field

Forecast is more than 6 hours old.

Closest forecast is Volk Field, 20.2 nm (37.3 km) W. Retrieved 2019/10/18 09:18 UTC (6 hours ago):

TAF KVOK 180900Z 1809/1915 15007KT 3200 BR SKC QNH2974INS BECMG 1813/1815 18010KT 9999 NSW SKC QNH2975INS BECMG 1820/1821 18010KT 9999 SKC WS020/18040KT QNH2977INS BECMG 1906/1907 18010KT 9999 SKC QNH2974INS BECMG 1910/1911 18010KT 9999 SCT040 QNH2974INS BECMG 1913/1914 19008KT 9999 BKN020 QNH2974INS TX14/1820Z TNM01/1809Z